Time;durP1;ratioP1;P1;durP2;ratioP2;P2;SDS_P1;SDS_P2;PMS_P1;PMS_P2;Temp;Humidity;BMP_temperature;BMP_pressure;BME280_temperature;BME280_humidity;BME280_pressure;Samples;Min_cycle;Max_cycle;Signal;HPM_P1;HPM_P2
2022/10/29 00:01:05;;;;;;;;;;;;;;;;;;4974424;28;19918;-86
2022/10/29 00:03:30;;;;;;;;;;;;;;;14.30;100.00;68357.31;4931427;29;20219;-85
2022/10/29 00:05:55;;;;;;;;;;;;;;;;;;4931024;29;20579;-86
2022/10/29 00:08:21;;;;;;;;;;;;;;;14.25;100.00;68356.41;4915549;29;19921;-85
2022/10/29 00:10:46;;;;;;;;;;;;;;;14.31;100.00;68358.44;4943507;29;19915;-86
2022/10/29 00:13:11;;;;;;;;;;;;;;;14.23;100.00;68346.66;4930567;29;19915;-85
2022/10/29 00:15:36;;;;;;;;;;;;;;;;;;4930199;29;20383;-85
2022/10/29 00:18:01;;;;;;;;;;;;;;;;;;4939736;28;19930;-86
2022/10/29 00:20:26;;;;;;;;;;;;;;;;;;4951010;28;19914;-86
2022/10/29 00:22:52;;;;;;;;;;;;;;;14.24;100.00;68350.44;4954774;28;19918;-86
2022/10/29 00:25:17;;;;;;;;;;;;;;;14.26;100.00;68350.06;4961355;28;20012;-86
2022/10/29 00:27:43;;;;;;;;;;;;;;;14.29;100.00;68350.22;4966038;28;19922;-86
2022/10/29 00:30:08;;;;;;;;;;;;;;;14.25;100.00;68351.03;4962485;28;19930;-86
2022/10/29 00:32:33;;;;;;;;;;;;;;;;;;4968104;28;19918;-85
2022/10/29 00:34:59;;;;;;;;;;;;;;;;;;4969327;28;20006;-86
2022/10/29 00:37:24;;;;;;;;;;;;;;;14.10;100.00;68335.09;4950692;28;19961;-86
2022/10/29 00:39:49;;;;;;;;;;;;;;;;;;4970554;28;19914;-85
2022/10/29 00:42:15;;;;;;;;;;;;;;;14.04;100.00;68328.28;4949312;28;20083;-86
2022/10/29 00:44:40;;;;;;;;;;;;;;;;;;4967029;28;20361;-85
2022/10/29 00:47:06;;;;;;;;;;;;;;;;;;4954176;28;19914;-86
2022/10/29 00:49:31;;;;;;;;;;;;;;;;;;4952344;28;19957;-85
2022/10/29 00:51:56;;;;;;;;;;;;;;;;;;4947308;28;19921;-86
2022/10/29 00:54:22;;;;;;;;;;;;;;;13.80;100.00;68300.97;4958588;28;20333;-86
2022/10/29 00:56:47;;;;;;;;;;;;;;;;;;4966519;28;20001;-85
2022/10/29 00:59:14;;;;;;;;;;;;;;;13.80;100.00;68300.97;4958969;28;20006;-86
2022/10/29 01:01:40;;;;;;;;;;;;;;;13.74;100.00;68292.03;4955714;28;20378;-86
2022/10/29 01:04:05;;;;;;;;;;;;;;;;;;4955615;28;19918;-86
2022/10/29 01:06:32;;;;;;;;;;;;;;;13.61;100.00;68277.81;4966188;28;19967;-86
2022/10/29 01:08:57;;;;;;;;;;;;;;;13.57;100.00;68273.25;4966490;28;19914;-85
2022/10/29 01:11:23;;;;;;;;;;;;;;;;;;4950518;28;19922;-85
2022/10/29 01:14:04;;;;;;;;;;;;;;;13.50;100.00;68267.97;4949043;28;19977;-85
2022/10/29 01:16:35;;;;;;;;;;;;;;;13.51;100.00;68269.69;4950209;29;19934;-86
2022/10/29 01:19:09;;;;;;;;;;;;;;;13.47;100.00;68265.13;4959097;28;19914;-85
2022/10/29 01:21:34;;;;;;;;;;;;;;;;;;4957810;28;19918;-86
2022/10/29 01:24:12;;;;;;;;;;;;;;;13.34;100.00;68249.78;4948038;29;19965;-86
2022/10/29 01:26:47;;;;;;;;;;;;;;;13.30;100.00;68243.13;4950606;28;20021;-86
2022/10/29 01:29:12;;;;;;;;;;;;;;;;;;4959190;28;19914;-86
2022/10/29 01:31:37;;;;;;;;;;;;;;;;;;4969876;28;19914;-86
2022/10/29 01:34:05;;;;;;;;;;;;;;;13.17;100.00;68228.88;4971522;28;19918;-85
2022/10/29 01:36:31;;;;;;;;;;;;;;;13.14;100.00;68228.13;4974151;28;19918;-85
2022/10/29 01:38:56;;;;;;;;;;;;;;;;;;4958476;28;20017;-86
2022/10/29 01:41:21;;;;;;;;;;;;;;;;;;4953225;29;20019;-86
2022/10/29 01:43:50;;;;;;;;;;;;;;;13.10;100.00;68229.50;4944700;28;20467;-86
2022/10/29 01:46:33;;;;;;;;;;;;;;;13.08;100.00;68221.88;4951957;28;19921;-85
2022/10/29 01:49:01;;;;;;;;;;;;;;;13.03;100.00;68220.97;4953671;28;19921;-85
2022/10/29 01:51:29;;;;;;;;;;;;;;;13.05;100.00;68223.25;4953090;28;19962;-85
2022/10/29 01:53:54;;;;;;;;;;;;;;;12.97;100.00;68209.38;4955484;28;19925;-85
2022/10/29 01:56:19;;;;;;;;;;;;;;;;;;4953229;29;19918;-86
2022/10/29 01:58:45;;;;;;;;;;;;;;;;;;4957845;28;19988;-85
2022/10/29 02:01:11;;;;;;;;;;;;;;;12.91;100.00;68210.00;4939541;29;19914;-85
2022/10/29 02:03:48;;;;;;;;;;;;;;;12.83;100.00;68193.47;4957179;28;20011;-85
2022/10/29 02:06:13;;;;;;;;;;;;;;;;;;4965188;28;19922;-85
2022/10/29 02:08:38;;;;;;;;;;;;;;;12.70;100.00;68184.03;4971388;28;20309;-86
2022/10/29 02:11:08;;;;;;;;;;;;;;;12.68;100.00;68176.97;4958994;28;19915;-86
2022/10/29 02:13:35;;;;;;;;;;;;;;;12.69;100.00;68183.47;4957982;28;19941;-86
2022/10/29 02:16:04;;;;;;;;;;;;;;;12.72;100.00;68186.31;4966154;28;19914;-85
2022/10/29 02:18:29;;;;;;;;;;;;;;;12.73;100.00;68180.00;4952959;28;19914;-85
2022/10/29 02:20:54;;;;;;;;;;;;;;;;;;4971540;28;19922;-85
2022/10/29 02:23:19;;;;;;;;;;;;;;;;;;4972514;28;19914;-85
2022/10/29 02:25:45;;;;;;;;;;;;;;;;;;4966675;28;19948;-85
2022/10/29 02:28:10;;;;;;;;;;;;;;;13.08;100.00;68226.66;4940602;28;19914;-85
2022/10/29 02:30:35;;;;;;;;;;;;;;;13.11;100.00;68230.06;4956713;28;20387;-85
2022/10/29 02:33:00;;;;;;;;;;;;;;;13.03;100.00;68216.22;4969117;28;19914;-85
2022/10/29 02:35:26;;;;;;;;;;;;;;;13.01;100.00;68213.38;4944488;29;19919;-86
2022/10/29 02:37:51;;;;;;;;;;;;;;;13.00;100.00;68212.78;4950377;28;19918;-85
2022/10/29 02:40:17;;;;;;;;;;;;;;;13.01;100.00;68213.94;4967444;28;20400;-85
2022/10/29 02:42:42;;;;;;;;;;;;;;;;;;4949140;28;19921;-86
2022/10/29 02:45:07;;;;;;;;;;;;;;;;;;4939364;29;22022;-85
2022/10/29 02:47:32;;;;;;;;;;;;;;;13.18;100.00;68243.41;4951536;28;19914;-86
2022/10/29 02:49:57;;;;;;;;;;;;;;;13.13;100.00;68223.78;4954542;28;20390;-86
2022/10/29 02:52:23;;;;;;;;;;;;;;;13.10;100.00;68220.94;4934360;29;19914;-86
2022/10/29 02:54:48;;;;;;;;;;;;;;;;;;4971037;28;19921;-85
2022/10/29 02:57:13;;;;;;;;;;;;;;;12.91;100.00;68199.88;4936302;28;19919;-86
2022/10/29 02:59:38;;;;;;;;;;;;;;;12.93;100.00;68202.16;4942808;29;19945;-86
2022/10/29 03:02:03;;;;;;;;;;;;;;;13.08;100.00;68226.66;4947186;28;19921;-86
2022/10/29 03:04:29;;;;;;;;;;;;;;;13.14;100.00;68227.56;4933259;29;19914;-86
2022/10/29 03:06:54;;;;;;;;;;;;;;;13.18;100.00;68232.13;4939361;29;19914;-85
2022/10/29 03:09:19;;;;;;;;;;;;;;;13.18;100.00;68237.47;4953000;29;19914;-85
2022/10/29 03:11:45;;;;;;;;;;;;;;;;;;4955758;28;20009;-85
2022/10/29 03:14:10;;;;;;;;;;;;;;;;;;4953549;28;19918;-85
2022/10/29 03:16:35;;;;;;;;;;;;;;;;;;4936823;28;19985;-85
2022/10/29 03:19:00;;;;;;;;;;;;;;;13.07;100.00;68226.09;4955033;28;19915;-85
2022/10/29 03:21:25;;;;;;;;;;;;;;;13.10;100.00;68228.94;4952638;29;20291;-85
2022/10/29 03:23:51;;;;;;;;;;;;;;;13.12;100.00;68225.28;4942190;28;19921;-86
2022/10/29 03:26:16;;;;;;;;;;;;;;;12.99;100.00;68211.66;4953817;28;19942;-85
2022/10/29 03:28:41;;;;;;;;;;;;;;;12.94;100.00;68205.41;4962349;28;19914;-85
2022/10/29 03:31:06;;;;;;;;;;;;;;;;;;4971175;28;20618;-85
2022/10/29 03:33:31;;;;;;;;;;;;;;;;;;4968918;28;19964;-85
2022/10/29 03:35:57;;;;;;;;;;;;;;;12.80;100.00;68195.41;4955561;28;19918;-86
2022/10/29 03:38:23;;;;;;;;;;;;;;;;;;4953458;29;19927;-86
2022/10/29 03:40:48;;;;;;;;;;;;;;;12.65;100.00;68173.56;4935515;29;20293;-86
2022/10/29 03:43:13;;;;;;;;;;;;;;;12.60;100.00;68167.88;4957024;28;19922;-86
2022/10/29 03:45:38;;;;;;;;;;;;;;;12.57;100.00;68164.47;4953224;28;19914;-85
2022/10/29 03:48:04;;;;;;;;;;;;;;;12.50;100.00;68161.88;4963054;28;19915;-85
2022/10/29 03:50:29;;;;;;;;;;;;;;;12.48;100.00;68154.81;4954378;28;19925;-85
2022/10/29 03:52:54;;;;;;;;;;;;;;;12.39;100.00;68150.50;4959224;28;19969;-85
2022/10/29 03:55:19;;;;;;;;;;;;;;;;;;4954158;28;19922;-86
2022/10/29 03:57:44;;;;;;;;;;;;;;;12.31;100.00;68136.06;4938024;28;19929;-86
2022/10/29 04:00:10;;;;;;;;;;;;;;;12.26;100.00;68135.16;4972213;28;19914;-86
2022/10/29 04:02:35;;;;;;;;;;;;;;;;;;4965782;28;19982;-86
2022/10/29 04:05:00;;;;;;;;;;;;;;;12.30;100.00;68134.38;4980338;28;20064;-87
2022/10/29 04:07:25;;;;;;;;;;;;;;;12.34;100.00;68144.81;4983162;28;20529;-86
2022/10/29 04:09:51;;;;;;;;;;;;;;;12.45;100.00;68156.19;4954079;28;20466;-86
2022/10/29 04:12:16;;;;;;;;;;;;;;;12.44;100.00;68149.72;4962076;28;19915;-86
2022/10/29 04:14:41;;;;;;;;;;;;;;;12.47;100.00;68151.03;4960894;29;19902;-87
2022/10/29 04:17:07;;;;;;;;;;;;;;;12.31;100.00;68140.84;4968841;29;19918;-86
2022/10/29 04:19:32;;;;;;;;;;;;;;;12.29;100.00;68133.25;4953459;29;19921;-85
2022/10/29 04:21:57;;;;;;;;;;;;;;;12.28;100.00;68137.44;4936146;28;19914;-85
2022/10/29 04:24:23;;;;;;;;;;;;;;;12.26;100.00;68135.16;4961845;28;20000;-86
2022/10/29 04:26:48;;;;;;;;;;;;;;;;;;4966657;28;19950;-86
2022/10/29 04:29:13;;;;;;;;;;;;;;;12.15;100.00;68118.47;4943915;28;19960;-86
2022/10/29 04:31:38;;;;;;;;;;;;;;;12.11;100.00;68121.34;4951045;29;20556;-86
2022/10/29 04:34:03;;;;;;;;;;;;;;;;;;4931846;29;19918;-85
2022/10/29 04:36:29;;;;;;;;;;;;;;;12.14;100.00;68116.75;4956761;28;20005;-86
2022/10/29 04:38:54;;;;;;;;;;;;;;;12.07;100.00;68114.72;4959508;28;20005;-86
2022/10/29 04:41:19;;;;;;;;;;;;;;;;;;4966076;28;19914;-86
2022/10/29 04:43:44;;;;;;;;;;;;;;;11.98;100.00;68098.59;4953790;28;20058;-86
2022/10/29 04:46:10;;;;;;;;;;;;;;;11.91;100.00;68099.19;4969249;28;19953;-86
2022/10/29 04:48:35;;;;;;;;;;;;;;;;;;4966468;28;19988;-86
2022/10/29 04:51:00;;;;;;;;;;;;;;;;;;4955771;28;20529;-85
2022/10/29 04:53:25;;;;;;;;;;;;;;;;;;4962093;28;19936;-86
2022/10/29 04:55:50;;;;;;;;;;;;;;;11.83;100.00;68088.00;4958222;28;20007;-86
2022/10/29 04:58:17;;;;;;;;;;;;;;;11.82;100.00;68080.94;4963348;28;19926;-86
2022/10/29 05:00:42;;;;;;;;;;;;;;;11.78;100.00;68076.41;4961301;28;19914;-86
2022/10/29 05:03:07;;;;;;;;;;;;;;;11.75;100.00;68074.13;4960493;28;20358;-85
2022/10/29 05:05:33;;;;;;;;;;;;;;;11.74;100.00;68077.78;4958794;28;19937;-85
2022/10/29 05:07:58;;;;;;;;;;;;;;;;;;4950469;29;19914;-86
2022/10/29 05:10:27;;;;;;;;;;;;;;;11.71;100.00;68066.94;4949371;29;20014;-86
2022/10/29 05:12:52;;;;;;;;;;;;;;;;;;4947981;28;19925;-85
2022/10/29 05:15:18;;;;;;;;;;;;;;;11.73;100.00;68076.63;4948454;28;19914;-86
2022/10/29 05:17:43;;;;;;;;;;;;;;;;;;4941612;29;19922;-85
2022/10/29 05:20:08;;;;;;;;;;;;;;;11.75;100.00;68078.91;4935948;28;19926;-85
2022/10/29 05:22:33;;;;;;;;;;;;;;;;;;4939439;28;19919;-86
2022/10/29 05:24:59;;;;;;;;;;;;;;;11.77;100.00;68081.19;4913630;29;19993;-86
2022/10/29 05:27:24;;;;;;;;;;;;;;;;;;4932972;29;19914;-85
2022/10/29 05:29:49;;;;;;;;;;;;;;;11.74;100.00;68078.34;4944666;29;20386;-85
2022/10/29 05:32:14;;;;;;;;;;;;;;;11.78;100.00;68081.75;4950315;29;19925;-85
2022/10/29 05:34:39;;;;;;;;;;;;;;;11.83;100.00;68087.44;4928484;29;19918;-85
2022/10/29 05:37:04;;;;;;;;;;;;;;;11.85;100.00;68084.94;4931433;29;19918;-85
2022/10/29 05:39:30;;;;;;;;;;;;;;;11.82;100.00;68086.28;4940709;29;20362;-85
2022/10/29 05:41:55;;;;;;;;;;;;;;;11.80;100.00;68079.25;4938316;28;20354;-85
2022/10/29 05:44:20;;;;;;;;;;;;;;;11.76;100.00;68072.03;4931447;29;20279;-85
2022/10/29 05:46:49;;;;;;;;;;;;;;;11.74;100.00;68077.78;4948901;28;19918;-86
2022/10/29 05:49:14;;;;;;;;;;;;;;;11.81;100.00;68077.72;4948356;28;20441;-86
2022/10/29 05:51:39;;;;;;;;;;;;;;;11.81;100.00;68079.81;4956523;28;19953;-85
2022/10/29 05:54:04;;;;;;;;;;;;;;;11.79;100.00;68078.09;4936296;28;19922;-85
2022/10/29 05:56:29;;;;;;;;;;;;;;;11.77;100.00;68081.19;4931391;29;20450;-85
2022/10/29 05:58:55;;;;;;;;;;;;;;;11.77;100.00;68075.25;4931464;29;20821;-85
2022/10/29 06:01:20;;;;;;;;;;;;;;;11.71;100.00;68069.03;4940994;29;19941;-85
2022/10/29 06:03:45;;;;;;;;;;;;;;;;;;4950706;29;20440;-85
2022/10/29 06:06:10;;;;;;;;;;;;;;;;;;4953626;29;19914;-85
2022/10/29 06:08:36;;;;;;;;;;;;;;;11.69;100.00;68072.09;4942266;29;19949;-85
2022/10/29 06:11:01;;;;;;;;;;;;;;;;;;4924797;28;19914;-84
2022/10/29 06:13:27;;;;;;;;;;;;;;;11.57;100.00;68058.47;4958121;29;19921;-85
2022/10/29 06:15:56;;;;;;;;;;;;;;;11.59;100.00;68055.94;4939202;29;19915;-85
2022/10/29 06:18:22;;;;;;;;;;;;;;;11.59;100.00;68061.28;4934773;29;20579;-85
2022/10/29 06:20:47;;;;;;;;;;;;;;;;;;4952294;29;19921;-84
2022/10/29 06:23:12;;;;;;;;;;;;;;;11.55;100.00;68056.75;4946354;29;20298;-84
2022/10/29 06:25:37;;;;;;;;;;;;;;;11.55;100.00;68056.75;4943691;29;20378;-84
2022/10/29 06:28:06;;;;;;;;;;;;;;;11.57;100.00;68053.13;4951666;29;20434;-84
2022/10/29 06:30:32;;;;;;;;;;;;;;;11.54;100.00;68050.28;4943692;29;19915;-84
2022/10/29 06:33:01;;;;;;;;;;;;;;;11.52;100.00;68048.00;4942627;29;19918;-84
2022/10/29 06:35:27;;;;;;;;;;;;;;;11.49;100.00;68050.50;4929251;29;19978;-84
2022/10/29 06:37:52;;;;;;;;;;;;;;;;;;4931553;29;19923;-84
2022/10/29 06:40:17;;;;;;;;;;;;;;;11.50;100.00;68051.63;4952104;28;19920;-84
2022/10/29 06:42:43;;;;;;;;;;;;;;;;;;4941383;29;20318;-83
2022/10/29 06:45:08;;;;;;;;;;;;;;;11.49;100.00;68045.16;4927496;29;19915;-84
2022/10/29 06:47:33;;;;;;;;;;;;;;;;;;4940260;29;20005;-84
2022/10/29 06:49:59;;;;;;;;;;;;;;;11.44;100.00;68039.50;4935797;29;20349;-83
2022/10/29 06:52:24;;;;;;;;;;;;;;;;;;4930986;29;19919;-83
2022/10/29 06:54:49;;;;;;;;;;;;;;;11.53;100.00;68047.03;4942381;29;19925;-83
2022/10/29 06:57:14;;;;;;;;;;;;;;;;;;4940884;28;19919;-83
2022/10/29 06:59:39;;;;;;;;;;;;;;;11.58;100.00;68060.16;4960238;28;19921;-84
2022/10/29 07:02:04;;;;;;;;;;;;;;;;;;4957389;28;19920;-83
2022/10/29 07:04:29;;;;;;;;;;;;;;;11.63;100.00;68060.50;4946618;29;19918;-83
2022/10/29 07:06:55;;;;;;;;;;;;;;;11.68;100.00;68070.94;4928905;29;19918;-84
2022/10/29 07:09:20;;;;;;;;;;;;;;;;;;4945825;29;19914;-84
2022/10/29 07:11:45;;;;;;;;;;;;;;;11.74;100.00;68080.44;4936765;29;19914;-84
2022/10/29 07:14:10;;;;;;;;;;;;;;;;;;4941507;29;20079;-84
2022/10/29 07:16:35;;;;;;;;;;;;;;;;;;4953708;28;20710;-84
2022/10/29 07:19:00;;;;;;;;;;;;;;;;;;4939035;28;19921;-84
2022/10/29 07:21:26;;;;;;;;;;;;;;;;;;4951655;29;19914;-84
2022/10/29 07:23:51;;;;;;;;;;;;;;;12.07;100.00;68114.13;4945460;28;20298;-84
2022/10/29 07:26:16;;;;;;;;;;;;;;;;;;4946598;29;20496;-83
2022/10/29 07:28:41;;;;;;;;;;;;;;;12.18;100.00;68126.63;4945026;28;20591;-85
2022/10/29 07:31:06;;;;;;;;;;;;;;;12.24;100.00;68125.44;4949585;28;20426;-84
2022/10/29 07:33:32;;;;;;;;;;;;;;;;;;4950863;29;19965;-83
2022/10/29 07:35:57;;;;;;;;;;;;;;;12.41;100.00;68146.88;4950640;29;19941;-85
2022/10/29 07:38:23;;;;;;;;;;;;;;;12.50;100.00;68156.53;4937986;29;20374;-84
2022/10/29 07:40:48;;;;;;;;;;;;;;;;;;4940365;29;19930;-85
2022/10/29 07:43:14;;;;;;;;;;;;;;;12.64;100.00;68172.44;4934710;29;20375;-84
2022/10/29 07:45:40;;;;;;;;;;;;;;;12.71;100.00;68180.38;4945102;28;19919;-84
2022/10/29 07:48:08;;;;;;;;;;;;;;;12.78;100.00;68188.34;4942610;28;19922;-84
2022/10/29 07:50:34;;;;;;;;;;;;;;;12.86;100.00;68202.81;4951176;28;19921;-84
2022/10/29 07:52:59;;;;;;;;;;;;;;;;;;4954269;28;19915;-84
2022/10/29 07:55:25;;;;;;;;;;;;;;;13.01;100.00;68218.72;4931674;29;19915;-84
2022/10/29 07:57:51;;;;;;;;;;;;;;;;;;4928166;29;19918;-83
2022/10/29 08:00:17;;;;;;;;;;;;;;;13.18;100.00;68232.69;4924010;29;19918;-84
2022/10/29 08:02:42;;;;;;;;;;;;;;;;;;4922812;29;19914;-85
2022/10/29 08:05:07;;;;;;;;;;;;;;;13.47;100.00;68270.47;4939545;29;20001;-84
2022/10/29 08:07:32;;;;;;;;;;;;;;;13.63;100.00;68287.53;4932895;29;19918;-85
2022/10/29 08:09:58;;;;;;;;;;;;;;;;;;4950584;29;19914;-84
2022/10/29 08:12:23;;;;;;;;;;;;;;;13.80;100.00;68301.53;4948601;29;19922;-85
2022/10/29 08:14:48;;;;;;;;;;;;;;;13.94;100.00;68316.88;4950076;29;19922;-84
2022/10/29 08:17:13;;;;;;;;;;;;;;;14.11;100.00;68336.22;4950292;29;19926;-84
2022/10/29 08:19:38;;;;;;;;;;;;;;;14.22;100.00;68346.06;4933346;29;19921;-84
2022/10/29 08:22:04;;;;;;;;;;;;;;;14.33;100.00;68360.72;4945991;29;19925;-84
2022/10/29 08:24:29;;;;;;;;;;;;;;;14.49;100.00;68378.34;4948350;29;19914;-84
2022/10/29 08:26:54;;;;;;;;;;;;;;;14.50;100.00;68378.91;4944403;29;20009;-85
2022/10/29 08:29:19;;;;;;;;;;;;;;;14.54;100.00;68383.50;4954275;29;19918;-84
2022/10/29 08:31:45;;;;;;;;;;;;;;;;;;4959916;29;19992;-84
2022/10/29 08:34:10;;;;;;;;;;;;;;;;;;4945369;28;19918;-84
2022/10/29 08:36:35;;;;;;;;;;;;;;;;;;4929292;29;20275;-85
2022/10/29 08:39:00;;;;;;;;;;;;;;;14.70;100.00;68401.69;4950122;28;19915;-85
2022/10/29 08:41:32;;;;;;;;;;;;;;;14.76;100.00;68407.97;4931641;29;20321;-84
2022/10/29 08:43:57;;;;;;;;;;;;;;;;;;4939287;28;19925;-85
2022/10/29 08:46:34;;;;;;;;;;;;;;;14.86;100.00;68424.72;4949452;28;19918;-85
2022/10/29 08:49:05;;;;;;;;;;;;;;;14.91;100.00;68430.41;4938418;28;19918;-84
2022/10/29 08:51:35;;;;;;;;;;;;;;;14.92;100.00;68426.19;4956959;28;20566;-85
2022/10/29 08:54:01;;;;;;;;;;;;;;;14.99;100.00;68434.16;4930994;29;20294;-84
2022/10/29 08:56:34;;;;;;;;;;;;;;;15.02;100.00;68434.91;4932574;28;19923;-84
2022/10/29 08:58:59;;;;;;;;;;;;;;;15.06;100.00;68442.13;4961480;28;19921;-84
2022/10/29 09:01:25;;;;;;;;;;;;;;;15.11;100.00;68445.16;4940446;28;20005;-84
2022/10/29 09:03:50;;;;;;;;;;;;;;;15.15;100.00;68451.25;4932323;29;19953;-85
2022/10/29 09:06:24;;;;;;;;;;;;;;;15.18;100.00;68455.22;4932961;29;19918;-85
2022/10/29 09:08:49;;;;;;;;;;;;;;;15.24;100.00;68459.38;4936916;28;19932;-84
2022/10/29 09:11:20;;;;;;;;;;;;;;;15.32;100.00;68470.59;4957639;28;19914;-85
2022/10/29 09:14:07;;;;;;;;;;;;;;;15.38;100.00;68476.88;4933920;28;20434;-84
2022/10/29 09:16:32;;;;;;;;;;;;;;;;;;4935247;29;19927;-85
2022/10/29 09:19:05;;;;;;;;;;;;;;;15.58;100.00;68497.53;4930868;29;20337;-84
2022/10/29 09:21:30;;;;;;;;;;;;;;;15.66;100.00;68508.22;4949111;29;19946;-84
2022/10/29 09:24:07;;;;;;;;;;;;;;;15.71;100.00;68508.56;4947468;28;20473;-85
2022/10/29 09:26:39;;;;;;;;;;;;;;;15.77;100.00;68520.75;4935803;29;19918;-85
2022/10/29 09:29:23;;;;;;;;;;;;;;;15.84;100.00;68523.38;4949998;28;19941;-85
2022/10/29 09:31:49;;;;;;;;;;;;;;;;;;4949597;28;19969;-84
2022/10/29 09:34:19;;;;;;;;;;;;;;;15.96;100.00;68539.16;4935992;28;19926;-85
2022/10/29 09:36:54;;;;;;;;;;;;;;;16.02;100.00;68549.25;4954330;28;20378;-85
2022/10/29 09:39:49;;;;;;;;;;;;;;;16.07;100.00;68553.81;4931647;28;19915;-85
2022/10/29 09:42:42;;;;;;;;;;;;;;;16.14;100.00;68569.81;4886128;29;20398;-85
2022/10/29 09:54:17;;;;;;;;;;;;;;;16.34;100.00;68584.59;4912966;29;20055;-85
2022/10/29 09:56:43;;;;;;;;;;;;;;;16.44;100.00;68595.97;4938275;29;19919;-85
2022/10/29 09:59:23;;;;;;;;;;;;;;;16.54;100.00;68606.22;4937799;29;19957;-84
2022/10/29 10:01:49;;;;;;;;;;;;;;;16.73;100.00;68622.53;4930737;29;19973;-86
2022/10/29 10:04:14;;;;;;;;;;;;;;;;;;4914180;29;19919;-86
2022/10/29 10:06:58;;;;;;;;;;;;;;;17.13;100.00;68672.41;4915629;29;19961;-86
2022/10/29 10:09:23;;;;;;;;;;;;;;;17.24;100.00;68676.88;4942321;29;20390;-86
2022/10/29 10:11:51;;;;;;;;;;;;;;;17.27;100.00;68687.81;4929622;29;19974;-86
2022/10/29 10:14:18;;;;;;;;;;;;;;;17.38;100.00;68700.38;4925351;29;20055;-86
2022/10/29 10:16:55;;;;;;;;;;;;;;;17.45;100.00;68708.34;4930205;29;19923;-86
2022/10/29 10:19:31;;;;;;;;;;;;;;;17.46;100.00;68708.91;4934048;29;19914;-86
2022/10/29 10:21:56;;;;;;;;;;;;;;;;;;4943993;29;19922;-86
2022/10/29 10:24:32;;;;;;;;;;;;;;;17.53;100.00;68712.09;4939918;28;19914;-86
2022/10/29 10:26:57;;;;;;;;;;;;;;;;;;4953226;29;20405;-86
2022/10/29 10:29:23;;;;;;;;;;;;;;;17.65;100.00;68730.59;4952716;29;19918;-86
2022/10/29 10:32:08;;;;;;;;;;;;;;;17.69;100.00;68735.16;4955907;28;19914;-86
2022/10/29 10:34:34;;;;;;;;;;;;;;;17.73;100.00;68733.78;4921401;29;19918;-86
2022/10/29 10:37:04;;;;;;;;;;;;;;;17.82;100.00;68744.06;4960857;28;19929;-86
2022/10/29 10:39:40;;;;;;;;;;;;;;;17.88;100.00;68756.28;4946220;28;19915;-86
2022/10/29 10:42:15;;;;;;;;;;;;;;;17.92;100.00;68758.16;4953112;28;19914;-86
2022/10/29 10:44:47;;;;;;;;;;;;;;;17.95;100.00;68763.69;4951028;28;19926;-86
2022/10/29 10:47:12;;;;;;;;;;;;;;;17.97;100.00;68766.00;4946599;29;19925;-86
2022/10/29 10:49:37;;;;;;;;;;;;;;;18.00;100.00;68767.28;4935138;29;19918;-86
2022/10/29 10:52:03;;;;;;;;;;;;;;;;;;4957716;28;19914;-86
2022/10/29 10:54:37;;;;;;;;;;;;;;;18.10;100.00;68777.56;4958794;28;20362;-86
2022/10/29 10:57:04;;;;;;;;;;;;;;;18.16;100.00;68787.69;4957145;28;19945;-86
2022/10/29 10:59:48;;;;;;;;;;;;;;;18.19;100.00;68790.53;4920954;28;19927;-86
2022/10/29 11:02:48;;;;;;;;;;;;;;;18.24;100.00;68793.53;4896165;29;19926;-86
2022/10/29 11:05:21;;;;;;;;;;;;;;;18.29;100.00;68801.94;4860814;29;19927;-86
2022/10/29 11:07:57;;;;;;;;;;;;;;;18.33;100.00;68805.97;4897810;29;19967;-86
2022/10/29 11:10:26;;;;;;;;;;;;;;;18.38;100.00;68803.56;4905258;29;19922;-86
2022/10/29 11:12:53;;;;;;;;;;;;;;;;;;4905909;29;19967;-85
2022/10/29 11:15:36;;;;;;;;;;;;;;;18.43;100.00;68817.94;4906479;29;20261;-86
2022/10/29 11:18:10;;;;;;;;;;;;;;;18.47;100.00;68819.81;4889412;29;19926;-85
2022/10/29 11:20:36;;;;;;;;;;;;;;;18.53;100.00;68825.50;4894938;29;20395;-85
2022/10/29 11:25:44;;;;;;;;;;;;;;;18.71;100.00;68846.06;5086714;23;19929;-85
2022/10/29 11:28:39;;;;;;;;;;;;;;;18.78;100.00;68856.78;4946215;28;20620;-85
2022/10/29 11:31:10;;;;;;;;;;;;;;;18.86;99.66;68857.25;4895092;29;19915;-85
2022/10/29 11:33:57;;;;;;;;;;;;;;;18.95;99.36;68875.63;4952297;28;20375;-85
2022/10/29 11:36:23;;;;;;;;;;;;;;;19.21;98.36;68904.19;4961414;28;19925;-85
2022/10/29 11:38:51;;;;;;;;;;;;;;;19.36;98.15;68915.91;4941352;28;20014;-85
2022/10/29 11:41:16;;;;;;;;;;;;;;;;;;4963422;28;19914;-85
2022/10/29 11:43:41;;;;;;;;;;;;;;;19.52;94.83;68936.91;4935335;28;20065;-85
2022/10/29 11:46:15;;;;;;;;;;;;;;;19.76;94.13;68965.91;4950564;28;19919;-85
2022/10/29 11:48:47;;;;;;;;;;;;;;;19.85;90.98;68970.78;4934966;29;19914;-85
2022/10/29 11:51:35;;;;;;;;;;;;;;;19.86;90.77;68974.66;4916070;29;20625;-85
2022/10/29 11:54:05;;;;;;;;;;;;;;;20.02;90.41;68992.94;4918243;29;19922;-85
2022/10/29 11:56:30;;;;;;;;;;;;;;;20.05;89.41;68993.66;4913674;29;19965;-85
2022/10/29 11:58:55;;;;;;;;;;;;;;;20.13;89.48;69004.34;4930561;29;19922;-85
2022/10/29 12:01:35;;;;;;;;;;;;;;;20.28;88.53;69022.09;4925303;29;20379;-86
2022/10/29 12:04:19;;;;;;;;;;;;;;;20.46;89.05;69044.78;4930533;29;19918;-86
2022/10/29 12:06:44;;;;;;;;;;;;;;;20.57;87.55;69054.13;4913689;29;19970;-86
2022/10/29 12:09:35;;;;;;;;;;;;;;;20.64;86.36;69062.13;4928597;29;19950;-86
2022/10/29 12:12:06;;;;;;;;;;;;;;;20.77;85.66;69073.69;4834253;29;19916;-86
2022/10/29 12:14:36;;;;;;;;;;;;;;;20.81;86.11;69081.00;4909648;29;19922;-86
2022/10/29 12:17:01;;;;;;;;;;;;;;;20.94;85.86;69095.28;4926231;29;19926;-86
2022/10/29 12:19:29;;;;;;;;;;;;;;;21.11;83.41;69116.88;4925379;29;19923;-86
2022/10/29 12:22:03;;;;;;;;;;;;;;;21.29;83.21;69132.06;4929138;29;20639;-86
2022/10/29 12:24:43;;;;;;;;;;;;;;;21.37;81.83;69143.34;4943082;28;19942;-86
2022/10/29 12:27:16;;;;;;;;;;;;;;;21.28;81.37;69130.91;4926154;29;19919;-87
2022/10/29 12:29:48;;;;;;;;;;;;;;;21.26;81.47;69134.03;4947242;28;20235;-84
2022/10/29 12:32:27;;;;;;;;;;;;;;;21.33;81.22;69142.03;4943465;28;19926;-84
2022/10/29 12:35:18;;;;;;;;;;;;;;;21.36;80.56;69142.78;4927909;29;19929;-84
2022/10/29 12:37:53;;;;;;;;;;;;;;;21.46;83.00;69148.22;4918026;29;19978;-84
2022/10/29 12:40:23;;;;;;;;;;;;;;;21.55;82.00;69166.09;4954199;28;19922;-85
2022/10/29 12:42:49;;;;;;;;;;;;;;;21.57;80.85;69163.53;4937035;29;20354;-84
2022/10/29 12:45:33;;;;;;;;;;;;;;;21.64;80.71;69168.28;4939412;28;19918;-84
2022/10/29 12:47:59;;;;;;;;;;;;;;;;;;4960945;28;19999;-84
2022/10/29 12:50:24;;;;;;;;;;;;;;;21.80;78.51;69188.72;4963186;28;19922;-86
2022/10/29 12:52:57;;;;;;;;;;;;;;;21.77;78.11;69185.84;4947756;29;19914;-84
2022/10/29 12:55:24;;;;;;;;;;;;;;;21.84;79.88;69193.88;4938570;28;19925;-83
2022/10/29 12:57:49;;;;;;;;;;;;;;;21.91;79.13;69195.31;4957292;29;20004;-83
2022/10/29 13:00:29;;;;;;;;;;;;;;;21.92;79.11;69205.16;4956182;28;19997;-85
2022/10/29 13:02:55;;;;;;;;;;;;;;;21.88;77.89;69197.31;4956274;29;19915;-85
2022/10/29 13:05:23;;;;;;;;;;;;;;;21.83;79.41;69195.41;4947668;28;19961;-84
2022/10/29 13:07:48;;;;;;;;;;;;;;;21.84;79.04;69199.28;4947994;28;19915;-85
2022/10/29 13:10:22;;;;;;;;;;;;;;;21.94;77.77;69209.59;4927557;28;19926;-85
2022/10/29 13:12:53;;;;;;;;;;;;;;;22.03;76.68;69211.75;4907079;29;19944;-84
2022/10/29 13:15:20;;;;;;;;;;;;;;;22.11;76.74;69226.34;4912012;29;20111;-83
2022/10/29 13:17:47;;;;;;;;;;;;;;;22.11;76.13;69225.78;4915058;29;19930;-84
2022/10/29 13:20:26;;;;;;;;;;;;;;;22.11;77.55;69226.34;4908160;29;20026;-84
2022/10/29 13:22:55;;;;;;;;;;;;;;;22.18;77.33;69233.78;4914204;29;20014;-85
2022/10/29 13:25:36;;;;;;;;;;;;;;;22.19;77.15;69232.81;4903866;29;20040;-84
2022/10/29 13:28:24;;;;;;;;;;;;;;;22.35;76.45;69253.25;4923945;29;19919;-86
2022/10/29 13:30:58;;;;;;;;;;;;;;;22.48;76.27;69264.88;4901024;29;20411;-87
2022/10/29 13:33:26;;;;;;;;;;;;;;;22.50;77.10;69267.16;4927434;29;19926;-88
2022/10/29 13:35:54;;;;;;;;;;;;;;;22.49;76.36;69266.00;4948434;28;20057;-88
2022/10/29 13:38:38;;;;;;;;;;;;;;;22.36;75.05;69256.56;4939752;28;19926;-86
2022/10/29 13:41:03;;;;;;;;;;;;;;;22.24;76.49;69238.53;4952751;28;19961;-86
2022/10/29 13:43:30;;;;;;;;;;;;;;;22.15;76.19;69228.19;4931332;28;20135;-85
2022/10/29 13:46:01;;;;;;;;;;;;;;;22.14;77.71;69226.50;4967750;28;20601;-85